Tiger — 9HA2271 — position and weather

sailwx.info

Track history (hours):
 
Tides and Currents Weather Stations Pressure Air Temp Water Temp Dewpoint Dewpoint Depression Visibility Wind Speed Wind Dir Waves Ship Positions

Tiger

Last reported at 2014-Sep-14 22:07 UTC. Time now 2014-Sep-17 01:36 UTC.
Position N 38°17' W 009°42'.

Length 232 m; draft 8.8 m.

Type: Cargo ship. MMSI: 248223000.

Date/timePositionNaut miles runAvg speedWind from/ knotsBaromVisibWave heightAir tempDewpointWater temp
2014-Sep-14 22:07N 38°17' W 009°42'916.4
2014-Sep-14 21:33N 38°08' W 009°40'1716.1
2014-Sep-14 20:32N 37°52' W 009°36'1616.4
2014-Sep-14 19:33N 37°36' W 009°32'36414.0
2014-Sep-13 17:33N 36°18' W 002°07'3216.2
2014-Sep-13 15:33N 36°23' W 001°27'1716.4
2014-Sep-13 14:33N 36°25' W 001°07'2116.2
2014-Sep-13 13:14N 36°29' W 000°41'1116.0
2014-Sep-13 12:32N 36°31' W 000°27'1515.8
2014-Sep-13 11:33N 36°34' W 000°08'1616.2
2014-Sep-13 10:33N 36°37' E 000°12'1615.9
2014-Sep-13 09:33N 36°39' E 000°31'1615.8
2014-Sep-13 08:33N 36°42' E 000°51'1615.6
2014-Sep-13 07:32N 36°45' E 001°10'1616.2
2014-Sep-13 06:33N 36°47' E 001°30'1616.3
2014-Sep-13 05:33N 36°50' E 001°50'1615.9
2014-Sep-13 04:30N 36°53' E 002°10'1615.9
2014-Sep-13 03:31N 36°56' E 002°29'1515.1
2014-Sep-13 02:33N 36°60' E 002°47'1515.4
2014-Sep-13 01:33N 37°04' E 003°06'1515.4
2014-Sep-13 00:33N 37°04' E 003°25'3115.4
2014-Sep-12 22:32N 37°09' E 004°04'2315.8
2014-Sep-12 21:07N 37°05' E 004°32'915.7
2014-Sep-12 20:33N 37°05' E 004°42'59 2.9
2014-Sep-12 00:25N 36°49' E 005°54'0 0.1
2014-Sep-11 18:07N 36°50' E 005°54'2 3.4
2014-Sep-11 17:33N 36°51' E 005°55'172 7.1
2014-Sep-10 17:27N 37°40' E 009°22'1516.5
2014-Sep-10 16:33N 37°40' E 009°41'1716.6
2014-Sep-10 15:33N 37°39' E 010°02'1717.0
2014-Sep-10 14:33N 37°39' E 010°23'3315.9
2014-Sep-10 12:28N 37°30' E 011°04'1516.4
2014-Sep-10 11:32N 37°24' E 011°21'2016.4
2014-Sep-10 10:20N 37°14' E 011°42'1716.5
2014-Sep-10 09:20N 37°06' E 012°00'2916.4
2014-Sep-10 07:33N 36°54' E 012°34'1716.9
2014-Sep-10 06:33N 36°49' E 012°54'1717.0
2014-Sep-10 05:33N 36°42' E 013°13'1716.7
2014-Sep-10 04:33N 36°35' E 013°32'1916.5
2014-Sep-10 03:25N 36°27' E 013°53'2116.2
2014-Sep-10 02:08N 36°20' E 014°18'1016.5
2014-Sep-10 01:33N 36°16' E 014°29'1616.3
2014-Sep-10 00:33N 36°14' E 014°49'3916.5
2014-Sep-09 22:13N 36°13' E 015°36'38617.0
2014-Sep-08 23:33N 36°37' E 023°35'5418.0
2014-Sep-08 20:32N 37°31' E 023°42'1717.6
2014-Sep-08 19:33N 37°48' E 023°38'10 9.6
2014-Sep-08 18:33N 37°57' E 023°36'0 0.2
2014-Sep-08 17:27N 37°58' E 023°36'0 0.0
2014-Sep-08 16:30N 37°58' E 023°36'0 0.0
2014-Sep-08 15:33N 37°58' E 023°36'0 0.0
2014-Sep-08 14:33N 37°58' E 023°36'0 0.0
2014-Sep-08 13:30N 37°58' E 023°36'0 0.0
2014-Sep-08 12:30N 37°58' E 023°36'1 1.5
2014-Sep-08 11:33N 37°56' E 023°36'1 1.3
2014-Sep-08 10:33N 37°55' E 023°36'3 3.4
2014-Sep-08 09:33N 37°52' E 023°35'0 0.3
2014-Sep-08 08:33N 37°52' E 023°35'1 0.6
2014-Sep-08 07:33N 37°52' E 023°36'0 0.4
2014-Sep-08 06:33N 37°52' E 023°36'1 0.5
2014-Sep-08 05:33N 37°52' E 023°36'1 0.7
2014-Sep-08 04:33N 37°53' E 023°35'0 0.3
2014-Sep-08 03:33N 37°53' E 023°35'4 4.2
2014-Sep-08 02:33N 37°51' E 023°40'1312.8
2014-Sep-08 01:33N 37°40' E 023°46'5814.4
2014-Sep-07 21:33N 36°44' E 024°05'1616.4
2014-Sep-07 20:33N 36°33' E 024°20'1616.1
2014-Sep-07 19:33N 36°23' E 024°36'1515.3
2014-Sep-07 18:33N 36°14' E 024°52'1515.0
2014-Sep-07 17:33N 36°06' E 025°07'1615.5
2014-Sep-07 16:33N 35°57' E 025°23'1615.9
2014-Sep-07 15:33N 35°48' E 025°39'  
Track history (hours):
 
Tides and Currents Weather Stations Pressure Air Temp Water Temp Dewpoint Dewpoint Depression Visibility Wind Speed Wind Dir Waves Ship Positions

Tiger

Last reported at 2014-Sep-14 22:07 UTC. Time now 2014-Sep-17 01:36 UTC.
Position N 38°17' W 009°42'.

Length 232 m; draft 8.8 m.

Type: Cargo ship. MMSI: 248223000.

Date/timePositionNaut miles runAvg speedWind from/ knotsBaromVisibWave heightAir tempDewpointWater temp
2014-Sep-14 22:07N 38°17' W 009°42'916.4
2014-Sep-14 21:33N 38°08' W 009°40'1716.1
2014-Sep-14 20:32N 37°52' W 009°36'1616.4
2014-Sep-14 19:33N 37°36' W 009°32'36414.0
2014-Sep-13 17:33N 36°18' W 002°07'3216.2
2014-Sep-13 15:33N 36°23' W 001°27'1716.4
2014-Sep-13 14:33N 36°25' W 001°07'2116.2
2014-Sep-13 13:14N 36°29' W 000°41'1116.0
2014-Sep-13 12:32N 36°31' W 000°27'1515.8
2014-Sep-13 11:33N 36°34' W 000°08'1616.2
2014-Sep-13 10:33N 36°37' E 000°12'1615.9
2014-Sep-13 09:33N 36°39' E 000°31'1615.8
2014-Sep-13 08:33N 36°42' E 000°51'1615.6
2014-Sep-13 07:32N 36°45' E 001°10'1616.2
2014-Sep-13 06:33N 36°47' E 001°30'1616.3
2014-Sep-13 05:33N 36°50' E 001°50'1615.9
2014-Sep-13 04:30N 36°53' E 002°10'1615.9
2014-Sep-13 03:31N 36°56' E 002°29'1515.1
2014-Sep-13 02:33N 36°60' E 002°47'1515.4
2014-Sep-13 01:33N 37°04' E 003°06'1515.4
2014-Sep-13 00:33N 37°04' E 003°25'3115.4
2014-Sep-12 22:32N 37°09' E 004°04'2315.8
2014-Sep-12 21:07N 37°05' E 004°32'915.7
2014-Sep-12 20:33N 37°05' E 004°42'59 2.9
2014-Sep-12 00:25N 36°49' E 005°54'0 0.1
2014-Sep-11 18:07N 36°50' E 005°54'2 3.4
2014-Sep-11 17:33N 36°51' E 005°55'172 7.1
2014-Sep-10 17:27N 37°40' E 009°22'1516.5
2014-Sep-10 16:33N 37°40' E 009°41'1716.6
2014-Sep-10 15:33N 37°39' E 010°02'1717.0
2014-Sep-10 14:33N 37°39' E 010°23'3315.9
2014-Sep-10 12:28N 37°30' E 011°04'1516.4
2014-Sep-10 11:32N 37°24' E 011°21'2016.4
2014-Sep-10 10:20N 37°14' E 011°42'1716.5
2014-Sep-10 09:20N 37°06' E 012°00'2916.4
2014-Sep-10 07:33N 36°54' E 012°34'1716.9
2014-Sep-10 06:33N 36°49' E 012°54'1717.0
2014-Sep-10 05:33N 36°42' E 013°13'1716.7
2014-Sep-10 04:33N 36°35' E 013°32'1916.5
2014-Sep-10 03:25N 36°27' E 013°53'2116.2
2014-Sep-10 02:08N 36°20' E 014°18'1016.5
2014-Sep-10 01:33N 36°16' E 014°29'1616.3
2014-Sep-10 00:33N 36°14' E 014°49'3916.5
2014-Sep-09 22:13N 36°13' E 015°36'38617.0
2014-Sep-08 23:33N 36°37' E 023°35'5418.0
2014-Sep-08 20:32N 37°31' E 023°42'1717.6
2014-Sep-08 19:33N 37°48' E 023°38'10 9.6
2014-Sep-08 18:33N 37°57' E 023°36'0 0.2
2014-Sep-08 17:27N 37°58' E 023°36'0 0.0
2014-Sep-08 16:30N 37°58' E 023°36'0 0.0
2014-Sep-08 15:33N 37°58' E 023°36'0 0.0
2014-Sep-08 14:33N 37°58' E 023°36'0 0.0
2014-Sep-08 13:30N 37°58' E 023°36'0 0.0
2014-Sep-08 12:30N 37°58' E 023°36'1 1.5
2014-Sep-08 11:33N 37°56' E 023°36'1 1.3
2014-Sep-08 10:33N 37°55' E 023°36'3 3.4
2014-Sep-08 09:33N 37°52' E 023°35'0 0.3
2014-Sep-08 08:33N 37°52' E 023°35'1 0.6
2014-Sep-08 07:33N 37°52' E 023°36'0 0.4
2014-Sep-08 06:33N 37°52' E 023°36'1 0.5
2014-Sep-08 05:33N 37°52' E 023°36'1 0.7
2014-Sep-08 04:33N 37°53' E 023°35'0 0.3
2014-Sep-08 03:33N 37°53' E 023°35'4 4.2
2014-Sep-08 02:33N 37°51' E 023°40'1312.8
2014-Sep-08 01:33N 37°40' E 023°46'5814.4
2014-Sep-07 21:33N 36°44' E 024°05'1616.4
2014-Sep-07 20:33N 36°33' E 024°20'1616.1
2014-Sep-07 19:33N 36°23' E 024°36'1515.3
2014-Sep-07 18:33N 36°14' E 024°52'1515.0
2014-Sep-07 17:33N 36°06' E 025°07'1615.5
2014-Sep-07 16:33N 35°57' E 025°23'1615.9
2014-Sep-07 15:33N 35°48' E 025°39'  

Dump ship's entire track history